createdAt,value
2022-09-23T03:38:23.297Z,12.25
2022-09-23T04:38:53.439Z,14.00
2022-09-23T04:41:22.930Z,15.25
2022-09-23T04:43:58.409Z,6.75
2022-09-23T04:46:27.877Z,15.00
2022-09-23T04:48:54.811Z,12.75
2022-09-23T04:51:28.271Z,14.50
2022-09-23T04:54:00.707Z,18.50
2022-09-23T04:56:33.162Z,14.75
2022-09-23T04:59:03.804Z,13.50
2022-09-23T05:01:34.376Z,16.25
2022-09-23T05:04:10.922Z,15.75
2022-09-23T05:06:42.155Z,14.75
2022-09-23T05:09:17.524Z,12.25
2022-09-23T05:11:50.782Z,16.50
2022-09-23T05:14:17.913Z,14.00
2022-09-23T05:16:51.929Z,12.25
2022-09-23T05:19:53.999Z,14.75
2022-09-23T05:22:23.634Z,12.50
2022-09-23T05:25:00.271Z,16.25
2022-09-23T05:27:35.054Z,17.00
2022-09-23T05:30:26.738Z,20.25
2022-09-23T05:33:36.284Z,21.50
2022-09-23T05:36:14.345Z,33.50
2022-09-23T05:38:46.449Z,24.00
2022-09-23T05:41:32.775Z,23.75
2022-09-23T05:44:02.637Z,24.75
2022-09-23T05:46:33.282Z,25.50
2022-09-23T05:49:08.504Z,27.00
2022-09-23T05:52:33.046Z,20.00
2022-09-23T05:55:33.197Z,17.00
2022-09-23T05:59:00.563Z,11.75
2022-09-23T06:02:00.490Z,16.33
2022-09-23T06:04:27.788Z,12.75
2022-09-23T06:06:54.563Z,13.00
2022-09-23T06:09:21.414Z,13.25
2022-09-23T06:11:48.343Z,12.50
2022-09-23T06:14:16.697Z,9.00
2022-09-23T06:16:43.808Z,9.50
2022-09-23T06:19:11.011Z,10.25
2022-09-23T06:21:39.904Z,10.50
2022-09-23T06:24:08.340Z,11.25
2022-09-23T06:26:36.864Z,10.00
2022-09-23T06:29:09.420Z,8.75
2022-09-23T06:31:41.221Z,13.25
2022-09-23T06:34:46.597Z,9.60
2022-09-23T06:37:49.075Z,13.20
2022-09-23T06:40:17.272Z,13.40
2022-09-23T06:42:47.114Z,10.20
2022-09-23T06:45:26.392Z,9.40
2022-09-23T06:47:56.153Z,9.20
2022-09-23T06:53:59.340Z,11.00
2022-09-23T06:56:41.678Z,11.00
2022-09-23T06:59:23.240Z,12.60
2022-09-23T07:01:53.789Z,11.20
2022-09-23T07:04:24.982Z,12.60
2022-09-23T07:06:54.517Z,10.20
2022-09-23T07:09:21.414Z,11.00
2022-09-23T07:11:48.256Z,9.20
2022-09-23T07:14:15.791Z,10.80
2022-09-23T07:16:43.632Z,11.20
2022-09-23T07:19:18.130Z,10.00
2022-09-23T07:21:53.972Z,7.80
2022-09-23T07:24:40.756Z,10.00
2022-09-23T07:27:21.961Z,9.00
2022-09-23T07:29:56.487Z,8.20
2022-09-23T07:32:48.107Z,10.00
2022-09-23T07:36:03.104Z,8.00
2022-09-23T07:38:50.723Z,7.60
2022-09-23T07:41:24.093Z,8.20
2022-09-23T07:43:53.402Z,10.20
2022-09-23T07:46:29.014Z,7.80
2022-09-23T07:48:57.406Z,6.80
2022-09-23T07:51:29.053Z,7.80
2022-09-23T07:54:06.363Z,7.80
2022-09-23T07:56:54.227Z,6.80
2022-09-23T07:59:45.958Z,6.00
2022-09-23T08:02:13.356Z,5.20
2022-09-23T08:04:53.127Z,6.00
2022-09-23T08:07:28.424Z,6.00
2022-09-23T08:10:06.362Z,5.40
2022-09-23T08:12:47.977Z,5.00
2022-09-23T08:15:17.665Z,6.00
2022-09-23T08:17:44.693Z,6.00
2022-09-23T08:20:11.871Z,7.00
2022-09-23T08:22:38.860Z,7.00
2022-09-23T08:25:10.118Z,4.25
2022-09-23T08:27:37.215Z,7.25
2022-09-23T08:30:05.334Z,6.00
2022-09-23T08:32:32.205Z,7.00
2022-09-23T08:35:01.600Z,8.50
2022-09-23T08:37:28.496Z,6.50
2022-09-23T08:39:55.533Z,7.75
2022-09-23T08:42:33.444Z,5.50
2022-09-23T08:45:10.075Z,6.50
2022-09-23T08:47:55.137Z,7.00
2022-09-23T08:50:39.798Z,7.00
2022-09-23T08:53:21.200Z,6.00
2022-09-23T08:55:54.900Z,7.25
2022-09-23T08:58:43.764Z,6.25
2022-09-23T09:01:26.209Z,7.25
2022-09-23T09:03:57.508Z,6.25
2022-09-23T09:06:41.879Z,5.75
2022-09-23T09:09:26.908Z,7.50
2022-09-23T09:12:02.919Z,5.50
2022-09-23T09:14:43.149Z,5.25
2022-09-23T09:17:19.238Z,7.00
2022-09-23T09:19:58.233Z,5.50
2022-09-23T09:22:47.055Z,5.50
2022-09-23T09:25:43.597Z,6.00
2022-09-23T09:28:18.730Z,4.75
2022-09-23T09:30:56.382Z,5.50
2022-09-23T09:33:31.537Z,5.00
2022-09-23T09:36:23.242Z,4.00
2022-09-23T09:38:50.394Z,5.00
2022-09-23T09:41:18.739Z,10.75
2022-09-23T09:43:47.538Z,6.75
2022-09-23T09:46:36.504Z,6.50
2022-09-23T09:49:13.962Z,6.00
2022-09-23T09:51:41.030Z,5.80
2022-09-23T09:54:22.672Z,6.00
2022-09-23T09:56:50.717Z,5.40
2022-09-23T09:59:27.089Z,5.50
2022-09-23T10:02:21.963Z,5.60
2022-09-23T10:04:59.764Z,5.20
2022-09-23T10:07:31.227Z,5.80
2022-09-23T10:10:28.793Z,6.40
2022-09-23T10:13:15.429Z,6.40
2022-09-23T10:15:48.340Z,6.00
2022-09-23T10:18:53.500Z,5.40
2022-09-23T10:22:02.994Z,6.00
2022-09-23T10:25:13.805Z,6.20
2022-09-23T11:18:37.898Z,6.60
2022-09-23T11:21:33.759Z,5.20
2022-09-23T11:50:48.432Z,5.60
2022-09-23T15:44:49.598Z,6.00
2022-09-23T15:47:53.244Z,5.60
2022-09-23T15:50:29.731Z,6.00
2022-09-23T15:52:59.572Z,6.60
2022-09-23T15:55:38.593Z,6.40
2022-09-23T16:04:13.020Z,6.00
2022-09-23T16:11:03.775Z,5.00
2022-09-23T16:13:45.522Z,6.00
2022-09-23T16:16:14.156Z,8.80
2022-09-23T16:18:47.451Z,3.80
2022-09-23T16:21:24.600Z,6.60
2022-09-23T16:23:53.230Z,8.40
2022-09-23T16:26:25.558Z,6.40
2022-09-23T16:28:57.528Z,4.00
2022-09-23T16:31:30.898Z,5.80
2022-09-23T16:34:03.289Z,5.40
2022-09-23T16:36:38.845Z,6.40
2022-09-23T16:39:19.027Z,6.20
2022-09-23T16:41:51.700Z,6.20
2022-09-23T16:44:20.937Z,8.00
2022-09-23T16:46:47.942Z,6.20
2022-09-23T16:49:20.676Z,6.60
2022-09-23T16:53:21.911Z,5.80
2022-09-23T16:59:53.272Z,13.00
2022-09-23T17:02:25.319Z,7.50
2022-09-23T17:04:53.927Z,5.75
2022-09-23T17:07:26.023Z,8.00
2022-09-23T17:09:55.167Z,7.00
2022-09-23T17:12:45.337Z,7.75
2022-09-23T17:15:27.301Z,7.25
2022-09-23T17:17:54.337Z,4.25
2022-09-23T17:20:27.016Z,6.75
2022-09-23T17:22:58.100Z,5.75
2022-09-23T17:25:38.557Z,5.00
2022-09-23T17:28:20.311Z,7.00
2022-09-23T17:31:09.436Z,7.00
2022-09-23T17:36:42.488Z,7.00
2022-09-23T17:39:09.510Z,6.00
2022-09-23T17:42:52.909Z,7.00
2022-09-23T17:45:43.103Z,6.50
2022-09-23T17:48:17.574Z,7.50
2022-09-23T17:50:54.421Z,9.25
2022-09-23T17:53:21.712Z,9.00
2022-09-23T17:55:55.986Z,4.25
2022-09-23T17:58:26.068Z,7.50
2022-09-23T18:00:54.828Z,7.00
2022-09-23T18:03:26.634Z,6.25
2022-09-23T18:06:05.287Z,8.00
2022-09-23T18:08:47.090Z,6.75
2022-09-23T18:11:47.700Z,7.25
2022-09-23T18:14:55.787Z,8.50
2022-09-23T18:17:27.534Z,9.50
2022-09-23T18:26:38.364Z,7.50
2022-09-23T18:29:35.860Z,9.00
2022-09-23T18:32:34.300Z,8.00
2022-09-23T18:35:15.715Z,9.25
2022-09-23T18:38:06.588Z,7.25
2022-09-23T18:40:33.923Z,7.00
2022-09-23T18:43:01.555Z,8.25
2022-09-23T18:45:28.825Z,10.00
2022-09-23T18:48:13.044Z,8.75
2022-09-23T18:52:02.584Z,9.75
2022-09-23T18:54:56.563Z,9.50
2022-09-23T18:57:33.575Z,8.50
2022-09-23T19:01:06.714Z,11.00
2022-09-23T19:03:45.639Z,11.00
2022-09-23T19:06:25.623Z,14.33
2022-09-23T19:09:27.550Z,8.75
2022-09-23T19:12:46.198Z,15.00
2022-09-23T19:16:38.139Z,19.67
2022-09-23T19:19:08.068Z,15.33
2022-09-23T19:21:44.994Z,11.00
2022-09-23T19:24:16.307Z,21.67
2022-09-23T19:26:44.180Z,16.75
2022-09-23T19:29:15.708Z,30.00
2022-09-23T19:35:12.599Z,16.67
2022-09-23T19:37:54.432Z,13.67
2022-09-23T19:41:18.328Z,20.00
2022-09-23T19:48:27.110Z,16.50
2022-09-23T19:51:40.133Z,14.50
2022-09-23T19:54:10.544Z,20.75
2022-09-23T19:56:41.423Z,15.00
2022-09-23T19:59:12.424Z,19.33
2022-09-23T20:01:44.858Z,19.00
2022-09-23T20:04:13.742Z,19.33
2022-09-23T20:06:43.344Z,10.67
2022-09-23T20:09:14.129Z,18.00
2022-09-23T20:11:41.222Z,22.00
2022-09-23T20:14:11.624Z,15.00
2022-09-23T20:16:41.793Z,17.00
2022-09-23T20:19:12.877Z,14.25
2022-09-23T20:21:46.169Z,16.75
2022-09-23T20:24:13.436Z,15.25
2022-09-23T20:26:40.560Z,14.75
2022-09-23T20:29:07.593Z,16.25
2022-09-23T20:31:34.669Z,17.00
2022-09-23T20:34:02.578Z,14.75
2022-09-23T20:36:31.366Z,12.67
2022-09-23T20:39:01.126Z,15.00
2022-09-23T20:41:29.775Z,15.00
2022-09-23T20:43:58.218Z,15.33
2022-09-23T20:46:25.477Z,14.00
2022-09-23T20:48:53.000Z,16.33
2022-09-23T20:51:20.752Z,43.25
2022-09-23T20:53:50.883Z,26.50
2022-09-23T20:56:18.623Z,22.75
2022-09-23T20:58:46.327Z,45.00
2022-09-23T21:01:13.344Z,55.50
2022-09-23T21:03:44.015Z,38.50
2022-09-23T21:06:12.887Z,35.25
2022-09-23T21:08:41.115Z,19.00
2022-09-23T21:11:12.588Z,18.25
2022-09-23T21:13:39.495Z,14.00
2022-09-23T21:16:10.409Z,14.33
2022-09-23T21:18:38.607Z,16.25
2022-09-23T21:21:06.576Z,16.00
2022-09-23T21:23:36.941Z,16.25
2022-09-23T21:26:06.395Z,15.25
2022-09-23T21:28:38.611Z,18.50
2022-09-23T21:31:10.206Z,12.50
2022-09-23T21:33:38.011Z,15.25
2022-09-23T21:36:07.349Z,19.00
2022-09-23T21:38:35.238Z,18.50
2022-09-23T21:41:06.133Z,22.25
2022-09-23T21:43:37.803Z,13.00
2022-09-23T21:46:12.596Z,15.25
2022-09-23T21:48:42.735Z,16.75
2022-09-23T21:51:14.955Z,15.50
2022-09-23T21:53:44.607Z,15.67
2022-09-23T21:56:20.502Z,17.33
2022-09-23T21:58:51.139Z,16.75
2022-09-23T22:01:22.233Z,12.67
2022-09-23T22:03:51.837Z,19.50
2022-09-23T22:06:22.621Z,18.00
2022-09-23T22:08:53.971Z,17.25
2022-09-23T22:11:23.963Z,19.25
2022-09-23T22:13:52.151Z,8.25
2022-09-23T22:16:18.969Z,19.00
2022-09-23T22:18:45.996Z,18.25
2022-09-23T22:21:12.707Z,20.00
2022-09-23T22:23:39.838Z,17.75
2022-09-23T22:26:06.769Z,10.50
2022-09-23T22:28:33.705Z,18.00
2022-09-23T22:31:02.156Z,18.00
2022-09-23T22:33:28.971Z,14.25
2022-09-23T22:36:01.385Z,16.25
2022-09-23T22:38:28.444Z,15.25
2022-09-23T22:40:55.419Z,21.50
2022-09-23T22:43:25.609Z,17.25
2022-09-23T22:45:52.517Z,14.75
2022-09-23T22:48:20.702Z,19.00
2022-09-23T22:50:47.451Z,18.00
2022-09-23T22:53:14.170Z,18.50
2022-09-23T22:55:41.005Z,20.25
2022-09-23T22:58:30.845Z,19.00
2022-09-23T23:00:56.535Z,19.50
2022-09-23T23:03:25.586Z,16.25
2022-09-23T23:05:52.348Z,18.50
2022-09-23T23:08:19.197Z,20.75
2022-09-23T23:10:46.048Z,18.75
2022-09-23T23:13:13.018Z,19.00
2022-09-23T23:15:40.324Z,17.50
2022-09-23T23:18:07.194Z,16.50
2022-09-23T23:20:35.648Z,15.00
2022-09-23T23:23:02.513Z,18.50
2022-09-23T23:25:29.531Z,19.50
2022-09-23T23:27:57.224Z,20.00
2022-09-23T23:30:24.098Z,17.00
2022-09-23T23:32:51.717Z,18.75
2022-09-23T23:35:18.674Z,16.00
2022-09-23T23:37:46.725Z,17.00
2022-09-23T23:40:14.047Z,20.25
2022-09-23T23:42:40.843Z,17.50
2022-09-23T23:45:08.901Z,18.75
2022-09-23T23:47:35.728Z,18.75
2022-09-23T23:50:02.939Z,17.00
2022-09-23T23:52:29.667Z,21.25
2022-09-23T23:54:57.762Z,17.75
2022-09-23T23:57:24.496Z,17.50
2022-09-23T23:59:51.431Z,15.50
